首页
METAR-TAF:

METAR-TAF

机场 :

內排國際機場

河內, 越南

纬度: 21-01N, 经度: 105-48E, 海拔: 6米

当前天气观测

该预报发布于17分钟前的01:00 UTC
风速2节,风向多变
温度 12°C
湿度 82%
气压 1021 hPa
能見度: 3600
轻雾

METAR: VVNB 110100Z VRB02KT 3600 BR NSC 12/09 Q1021 BECMG FM0215 6000 NSW

时间: 08:17 (01:17 UTC)

预报

该预报发布于2小时和17分钟前的23:00 UTC
预报有效从11日的 00点(UTC)到 11日的 24点(UTC)
风速5节,风向北转西北
能見度: 3000
轻雾
成为
从 11日的 01点(UTC)到 11日的 02点(UTC)
能見度: 6000
成为
从 11日的 18点(UTC)到 11日的 20点(UTC)
能見度: 4000
轻雾

TAF: VVNB 102300Z 1100/1124 34005KT 3000 BR NSC BECMG 1101/1102 6000 NSW BECMG 1118/1120 4000 BR

超过4000个机场的气象观测和天气预报(METAR&TAF报告)。

可查询的气象台以黄色和红色小点在地图上表示。

将鼠标移到小点上方,可查看气象台名称。

然后点击查看天气观测和预报。

如需切换地图:点击带黑十字的绿色按钮放大地图;点击带横线的绿色按钮缩小地图;或者点击绿色箭头查看邻近地区的地图。


METAR-TAF: